Burns Pinion Ridge Reserve, California Weather observations

Data are for 10 minute period ending at time listed.
 Day   Time   Solar   Ave.   Ave.  Ave.  Vector  Max.   Baro.   Total    
  of    of     Rad.   Air    Rel.  Wind   Wind   Wind  Press.  Precip.   
Year   Day            Temp.  Hum.  Speed  Dir.   Gust                    
2016   (PST)  Kw/m2    F      %     mph   deg.    mph    mb.     in.     
-------------------------------------------------------------------------
  43    9:10   0.48   69.2    12    0.6   334     2.0   882.3    0.00 
  43    9:20   0.51   69.1    13    1.1     5     2.3   882.5    0.00 
  43    9:30   0.54   68.5    13    2.0    70     3.9   882.6    0.00 
  43    9:40   0.56   67.8    14    1.9    94     3.3   882.7    0.00 
  43    9:50   0.59   69.1    14    1.8   121     3.7   882.8    0.00 
  43   10:00   0.61   69.7    14    1.4    51     2.9   882.9    0.00 
  43   10:10   0.63   69.6    13    2.3   114     4.5   882.9    0.00 
  43   10:20   0.66   69.8    13    1.8   122     4.7   882.9    0.00 
  43   10:30   0.67   70.4    13    2.1   119     4.7   882.8    0.00 
  43   10:40   0.69   70.4    13    3.1   167     5.4   882.8    0.00 
  43   10:50   0.71   71.4    13    3.3   151     7.1   882.8    0.00 
  43   11:00   0.72   71.4    12    2.2   147     5.5   882.7    0.00 
  43   11:10   0.73   71.9    13    3.8   161     7.8   882.6    0.00 
  43   11:20   0.74   71.6    13    3.7   146     6.6   882.5    0.00 
  43   11:30   0.75   70.8    13    3.7   108     7.2   882.3    0.00 
  43   11:40   0.75   71.0    13    3.5   139     7.4   882.3    0.00 
  43   11:50   0.76   71.7    13    2.4   133     4.7   882.1    0.00 
  43   12:00   0.74   71.8    13    3.3    89     5.6   882.0    0.00 
  43   12:10   0.76   71.3    14    3.4    84     8.0   881.8    0.00 
  43   12:20   0.76   71.6    14    2.9    87     6.2   881.6    0.00 
  43   12:30   0.75   71.6    14    2.9    65     6.4   881.5    0.00 
  43   12:40   0.75   72.5    14    2.6    38     6.6   881.4    0.00 
  43   12:50   0.74   72.7    13    3.3    82     6.8   881.3    0.00 
  43   13:00   0.73   72.1    13    3.4    89     7.4   881.1    0.00 
  43   13:10   0.72   73.0    13    2.8   112     5.9   881.0    0.00 
  43   13:20   0.71   74.2    12    3.4   145     7.5   880.8    0.00 
  43   13:30   0.69   74.8    12    3.2   160     7.5   880.7    0.00 
  43   13:40   0.67   74.6    12    4.2   150     8.1   880.7    0.00 
  43   13:50   0.66   74.4    12    3.2   120     8.2   880.6    0.00 
  43   14:00   0.64   74.1    13    4.4   148     8.0   880.5    0.00 
  43   14:10   0.61   74.3    12    3.7   150     8.0   880.5    0.00 
  43   14:20   0.59   75.3    12    3.0   159     8.5   880.5    0.00 
  43   14:30   0.56   75.0    12    2.0   153     4.9   880.5    0.00 
  43   14:40   0.54   74.3    12    3.0   180     5.8   880.4    0.00 
  43   14:50   0.51   74.3    12    2.7   155     7.3   880.3    0.00 
  43   15:00   0.48   74.2    12    2.9   194     5.0   880.3    0.00 
  43   15:10   0.45   73.5    12    2.6   202     5.7   880.3    0.00 
  43   15:20   0.42   74.1    12    2.4   203     5.3   880.4    0.00 
  43   15:30   0.38   74.2    12    2.4   166     6.6   880.3    0.00 
  43   15:40   0.35   74.2    12    2.5   114     5.6   880.3    0.00 
  43   15:50   0.32   71.8    13    2.6    69     4.7   880.3    0.00 
  43   16:00   0.28   70.5    14    2.4    66     4.7   880.3    0.00 
  43   16:10   0.25   70.4    14    2.3    70     4.8   880.3    0.00 
  43   16:20   0.21   70.3    14    2.7    82     5.1   880.3    0.00 
  43   16:30   0.18   70.4    14    2.3    70     5.0   880.3    0.00 
  43   16:40   0.15   70.2    14    2.9    69     4.8   880.3    0.00 
  43   16:50   0.11   69.5    14    2.3    65     4.5   880.3    0.00 
  43   17:00   0.06   67.2    15    2.0    61     4.2   880.3    0.00 
  43   17:10   0.01   64.0    17    2.4    69     3.7   880.2    0.00 
  43   17:20   0.01   62.1    18    2.2    60     3.7   880.1    0.00 
  43   17:30   0.00   60.2    20    2.8    49     3.5   879.9    0.00 
  43   17:40   0.00   57.5    23    1.7    37     3.2   879.8    0.00 
  43   17:50   0.00   53.6    28    0.2   116     1.5   879.8    0.00 
  43   18:00   0.00   51.0    30    0.3   204     1.6   879.9    0.00 
  43   18:10   0.00   49.5    32    0.5   304     2.0   880.0    0.00 
  43   18:20   0.00   48.7    32    0.7   330     1.8   880.2    0.00 
  43   18:30   0.00   47.5    34    0.9   337     1.7   880.4    0.00 
  43   18:40   0.00   46.9    35    1.2   340     1.6   880.5    0.00 
  43   18:50   0.00   45.7    38    1.7   345     2.0   880.5    0.00 
  43   19:00   0.00   45.5    38    0.9   356     1.9   880.6    0.00 
  43   19:10   0.00   46.2    37    0.0   351     0.1   880.6    0.00 
  43   19:20   0.00   45.5    38    1.3   315     3.4   880.7    0.00 
  43   19:30   0.00   45.1    38    1.3   333     2.6   880.7    0.00 
  43   19:40   0.00   44.6    38    0.7   313     2.0   880.6    0.00 
  43   19:50   0.00   43.9    39    0.8   332     2.4   880.6    0.00 
  43   20:00   0.00   44.2    38    0.0     0     0.0   880.5    0.00 
  43   20:10   0.00   43.9    38    0.3   318     1.2   880.6    0.00 
  43   20:20   0.00   44.2    37    0.3   284     1.1   880.7    0.00 
  43   20:30   0.00   44.5    36    0.5   258     1.0   880.7    0.00 
  43   20:40   0.00   44.5    37    0.4   270     2.2   880.7    0.00 
  43   20:50   0.00   43.5    39    1.5   299     2.5   880.7    0.00 
  43   21:00   0.00   44.0    38    1.0   273     1.9   880.8    0.00 
  43   21:10   0.00   43.5    38    1.3   296     1.9   880.9    0.00 
  43   21:20   0.00   43.1    39    0.4   332     1.9   880.9    0.00 
  43   21:30   0.00   42.8    39    0.0   297     0.8   880.9    0.00 
  43   21:40   0.00   42.1    40    0.6   326     1.8   880.9    0.00 
  43   21:50   0.00   41.7    40    1.0   326     2.0   880.9    0.00 
  43   22:00   0.00   42.1    38    1.1   315     2.0   881.0    0.00 
  43   22:10   0.00   42.3    38    0.9   324     1.9   881.0    0.00 
  43   22:20   0.00   41.6    39    0.6   348     2.0   881.0    0.00 
  43   22:30   0.00   41.8    38    0.5   337     1.2   881.0    0.00 
  43   22:40   0.00   41.7    38    1.3   356     2.0   881.0    0.00 
  43   22:50   0.00   41.5    38    0.6   352     1.8   880.9    0.00 
  43   23:00   0.00   41.2    39    0.4   352     1.3   880.9    0.00 
  43   23:10   0.00   41.2    39    0.6   231     1.7   880.8    0.00 
  43   23:20   0.00   41.4    40    0.1   231     0.7   880.8    0.00 
  43   23:30   0.00   41.2    40    0.1   231     0.8   880.8    0.00 
  43   23:40   0.00   41.3    41    0.1   231     1.0   880.7    0.00 
  43   23:50   0.00   41.6    40    0.0   231     0.4   880.6    0.00 
  44    0:00   0.00   41.4    40    0.0   274     0.9   880.6    0.00 
  44    0:10   0.00   40.7    41    1.8   304     2.9   880.5    0.00 
  44    0:20   0.00   40.5    41    0.4   272     1.5   880.5    0.00 
  44    0:30   0.00   40.6    40    1.1   258     1.6   880.4    0.00 
  44    0:40   0.00   40.0    39    0.9   302     2.3   880.4    0.00 
  44    0:50   0.00   40.2    38    0.3   288     2.0   880.4    0.00 
  44    1:00   0.00   40.4    37    0.2   240     0.9   880.3    0.00 
  44    1:10   0.00   40.8    36    1.1   275     2.4   880.4    0.00 
  44    1:20   0.00   41.2    36    0.3   299     1.4   880.3    0.00 
  44    1:30   0.00   40.7    37    0.0   251     0.7   880.2    0.00 
  44    1:40   0.00   40.8    36    0.3   273     1.7   880.2    0.00 
  44    1:50   0.00   40.5    36    0.4   322     1.6   880.2    0.00 
  44    2:00   0.00   40.1    36    0.3   303     1.6   880.1    0.00 
  44    2:10   0.00   41.2    34    1.8   293     2.6   880.1    0.00 
  44    2:20   0.00   41.1    35    0.3   259     2.3   880.1    0.00 
  44    2:30   0.00   39.9    37    0.2   237     1.6   880.0    0.00 
  44    2:40   0.00   40.0    37    0.0   206     0.4   880.0    0.00 
  44    2:50   0.00   40.4    36    0.0     0     0.0   880.0    0.00 
  44    3:00   0.00   40.3    37    0.9   299     3.2   880.0    0.00 
  44    3:10   0.00   40.5    36    1.2   260     3.2   880.0    0.00 
  44    3:20   0.00   40.7    35    0.6   250     1.7   880.0    0.00 
  44    3:30   0.00   40.4    36    1.2   316     2.9   880.0    0.00 
  44    3:40   0.00   40.5    36    0.2   278     1.2   879.9    0.00 
  44    3:50   0.00   40.2    36    1.3   321     2.3   879.9    0.00 
  44    4:00   0.00   40.3    34    0.8   317     2.3   879.8    0.00 
  44    4:10   0.00   41.2    33    0.5   344     2.3   879.8    0.00 
  44    4:20   0.00   40.9    34    0.5   319     2.2   879.8    0.00 
  44    4:30   0.00   41.6    32    0.7   309     2.2   879.8    0.00 
  44    4:40   0.00   42.2    32    0.3   284     1.2   879.8    0.00 
  44    4:50   0.00   41.5    32    1.4   312     2.8   879.8    0.00 
  44    5:00   0.00   41.0    33    1.0   326     2.8   879.8    0.00 
  44    5:10   0.00   41.1    32    0.4   321     1.9   879.8    0.00 
  44    5:20   0.00   41.2    32    0.0     0     0.0   879.8    0.00 
  44    5:30   0.00   40.1    34    0.0   323     0.7   879.8    0.00 
  44    5:40   0.00   39.9    34    0.0   301     0.7   879.8    0.00 
  44    5:50   0.00   39.7    34    0.3   307     1.5   879.8    0.00 
  44    6:00   0.00   39.6    34    1.4   321     2.1   879.9    0.00 
  44    6:10   0.00   39.9    33    0.0   342     0.7   880.0    0.00 
  44    6:20   0.00   40.4    33    0.7   254     1.7   880.1    0.00 
  44    6:30   0.00   40.6    33    0.8   275     1.2   880.2    0.00 
  44    6:40   0.01   40.6    32    0.1   262     0.9   880.3    0.00 
  44    6:50   0.01   41.2    32    0.5   244     1.3   880.3    0.00 
  44    7:00   0.01   41.3    32    0.1   219     1.1   880.4    0.00 
  44    7:10   0.01   41.8    33    0.2   253     1.1   880.4    0.00 
  44    7:20   0.08   43.4    32    0.4   261     1.0   880.5    0.00 
  44    7:30   0.14   51.3    28    0.2   261     0.9   880.5    0.00 
  44    7:40   0.17   58.0    24    0.0   261     0.7   880.7    0.00 
  44    7:50   0.21   62.6    19    0.0     0     0.0   880.8    0.00 
  44    8:00   0.24   66.6    16    1.7   337     2.3   880.7    0.00 
  44    8:10   0.28   67.6    15    1.8   325     2.6   880.7    0.00 
  44    8:20   0.32   67.5    16    0.6   330     1.8   880.6    0.00 
  44    8:30   0.35   69.8    13    0.4    12     2.7   880.6    0.00 
  44    8:40   0.38   69.0    13    2.0    86     4.5   880.4    0.00 
  44    8:50   0.42   67.0    13    2.4    74     5.0   880.4    0.00 
  44    9:00   0.45   67.0    13    2.5    90     4.4   880.4    0.00 

Return to Burns Pinion Ridge Reserve graphs page.


Western Regional Climate Center,wrcc@dri.edu